aviador You're here:

SCSE Decoded Metar

LA SERENA in CHILE
Report Time2017-09-23 08:00:00
UTC Time2017-09-23 08:58:31
Flight Rules ifr IFR
Wind130° at 04 kt
W.Decomp.*RWY 11: 3.8 kt HW 1.3 kt RCW
W.Rank130° ranks 9
Current wind is above 130° avg. (3.8)
Visibility9999 m
Phenomena:N/A
Clouds:Overcast 008 Hf
Expected CloudBase > 400 ft AGL from Temp-Dew spread
Ceiling800 ft
Temp11°C (ISA -3)
Dew Point10°C (94% RH)
AAT9.6°C
QNH1013 hPa
Density Alt282 ft
Elevation479 ft
Report Wrong Elevation
Raw Report
SCSE 230800Z 13004KT 9999 OVC008 11/10 Q1013=

Extra information for SCSE:More info

Metar Taf Metar & Taf Last 4 Metars F.Rules Stats Wind Profile Meteogram Temp Stats Airport Information Weather charts Add Link Nearby VenuesMetar ALERT Operation Metar Decoded Social comments